Airfield :
LOGIN :

Register | Disclaimer

   EN    FR    IT 

 










Legend :    VFR   Marginal VFR   IFR   Intensive IFR   Very Intensive IFR
Visi :
Ceiling :
>= 8 km
>= 3000ft
5 to 8 km
1000 to 3000 ft
1500m to 5 km
500 to 1000 ft
800 to 1500m
200 to 500 ft
< 800m
< 200 ft
Symbols :   Thunderstorms  Fog  Heavy snow  Heavy precipitations  Wind > 20 kt
SIGMETs :     Misc.  Thunderstorms  Icing  Turbulence  Mountain Waves  Volcanic Ashes






- Airport Elevation : 1966 ft
- IATA code : SGE


EDGS - Siegerland

CURRENT METAR :
  • 110950Z 31004KT 9999 SCT030 13/06 Q1024

EXPIRED METARs :
  • 110920Z 30004KT 9999 SCT024 13/07 Q1024
  • 110850Z 30004KT 9999 SCT027 12/06 Q1024
  • 110820Z 30006KT 9999 SCT022 12/06 Q1023
  • 110750Z 30005KT 9999 SCT017 12/07 Q1023
  • 110720Z 35006KT 9999 SCT018 12/07 Q1023

TAF TAF EDGS
Valid from the 11 at 09:00 until the 11 at 18:00 UTC


110800Z 1109/1118 32007KT 9999 SCT030



MET'MAP, your aeronautical weather chart ! - Copyright ORBIFLY December 2007 - Disclaimer

ORBIFLY MET'MAP TEAM :

Programming & Development : Alexandra Zaïnal
Concept & original design : Baudouin d'Aumeries
Assistance for programming : Marc-Olivier Méhu
Technical & hardware support : Manuel Goepfert

Contact : metmap@orbifly.com




SOURCES & CREDITS :

   NOAA